sensor_id;sensor_type;location;lat;lon;timestamp;P1;durP1;ratioP1;P2;durP2;ratioP2
39176;SDS011;24904;52.208;21.192;2023-07-02T00:03:11;26.30;;;17.70;;
39176;SDS011;24904;52.208;21.192;2023-07-02T00:08:14;25.30;;;16.30;;
39176;SDS011;24904;52.208;21.192;2023-07-02T00:13:17;26.30;;;17.90;;
39176;SDS011;24904;52.208;21.192;2023-07-02T00:18:20;26.10;;;16.00;;
39176;SDS011;24904;52.208;21.192;2023-07-02T00:23:23;27.80;;;18.50;;
39176;SDS011;24904;52.208;21.192;2023-07-02T00:28:26;25.00;;;16.80;;
39176;SDS011;24904;52.208;21.192;2023-07-02T00:33:29;26.00;;;18.20;;
39176;SDS011;24904;52.208;21.192;2023-07-02T00:38:33;25.80;;;16.90;;
39176;SDS011;24904;52.208;21.192;2023-07-02T00:43:36;25.90;;;17.90;;
39176;SDS011;24904;52.208;21.192;2023-07-02T00:48:40;27.60;;;18.00;;
39176;SDS011;24904;52.208;21.192;2023-07-02T00:53:45;26.40;;;17.60;;
39176;SDS011;24904;52.208;21.192;2023-07-02T00:58:49;26.30;;;17.90;;
39176;SDS011;24904;52.208;21.192;2023-07-02T01:03:55;27.80;;;19.50;;
39176;SDS011;24904;52.208;21.192;2023-07-02T01:09:01;28.40;;;18.80;;
39176;SDS011;24904;52.208;21.192;2023-07-02T01:14:05;29.70;;;19.50;;
39176;SDS011;24904;52.208;21.192;2023-07-02T01:19:13;38.60;;;21.60;;
39176;SDS011;24904;52.208;21.192;2023-07-02T01:24:20;28.80;;;20.00;;
39176;SDS011;24904;52.208;21.192;2023-07-02T01:29:24;27.70;;;19.00;;
39176;SDS011;24904;52.208;21.192;2023-07-02T01:34:27;28.70;;;20.50;;
39176;SDS011;24904;52.208;21.192;2023-07-02T01:39:30;26.70;;;18.80;;
39176;SDS011;24904;52.208;21.192;2023-07-02T01:44:34;26.30;;;18.90;;
39176;SDS011;24904;52.208;21.192;2023-07-02T01:49:37;27.50;;;19.60;;
39176;SDS011;24904;52.208;21.192;2023-07-02T01:54:40;28.50;;;19.10;;
39176;SDS011;24904;52.208;21.192;2023-07-02T01:59:44;29.30;;;20.00;;
39176;SDS011;24904;52.208;21.192;2023-07-02T02:04:47;25.20;;;19.00;;
39176;SDS011;24904;52.208;21.192;2023-07-02T02:09:50;31.50;;;21.40;;
39176;SDS011;24904;52.208;21.192;2023-07-02T02:14:54;27.90;;;20.30;;
39176;SDS011;24904;52.208;21.192;2023-07-02T02:19:58;31.90;;;21.60;;
39176;SDS011;24904;52.208;21.192;2023-07-02T02:25:01;29.20;;;20.30;;
39176;SDS011;24904;52.208;21.192;2023-07-02T02:30:06;31.90;;;21.10;;
39176;SDS011;24904;52.208;21.192;2023-07-02T02:35:10;28.30;;;20.10;;
39176;SDS011;24904;52.208;21.192;2023-07-02T02:40:14;29.80;;;20.30;;
39176;SDS011;24904;52.208;21.192;2023-07-02T02:45:17;32.80;;;20.80;;
39176;SDS011;24904;52.208;21.192;2023-07-02T02:50:21;33.30;;;20.60;;
39176;SDS011;24904;52.208;21.192;2023-07-02T02:55:24;32.70;;;22.20;;
39176;SDS011;24904;52.208;21.192;2023-07-02T03:00:27;31.70;;;22.80;;
39176;SDS011;24904;52.208;21.192;2023-07-02T03:05:30;31.60;;;21.80;;
39176;SDS011;24904;52.208;21.192;2023-07-02T03:10:33;32.30;;;23.00;;
39176;SDS011;24904;52.208;21.192;2023-07-02T03:15:37;32.20;;;23.30;;
39176;SDS011;24904;52.208;21.192;2023-07-02T03:20:40;31.20;;;22.20;;
39176;SDS011;24904;52.208;21.192;2023-07-02T03:25:43;34.10;;;22.30;;
39176;SDS011;24904;52.208;21.192;2023-07-02T03:30:46;30.80;;;23.00;;
39176;SDS011;24904;52.208;21.192;2023-07-02T03:35:49;30.70;;;21.60;;
39176;SDS011;24904;52.208;21.192;2023-07-02T03:40:52;30.60;;;22.50;;
39176;SDS011;24904;52.208;21.192;2023-07-02T03:45:57;31.00;;;22.10;;
39176;SDS011;24904;52.208;21.192;2023-07-02T03:51:00;33.70;;;23.70;;
39176;SDS011;24904;52.208;21.192;2023-07-02T03:56:04;34.00;;;22.20;;
39176;SDS011;24904;52.208;21.192;2023-07-02T04:01:07;33.50;;;22.50;;
39176;SDS011;24904;52.208;21.192;2023-07-02T04:06:10;28.90;;;21.90;;
39176;SDS011;24904;52.208;21.192;2023-07-02T04:11:13;28.60;;;22.10;;
39176;SDS011;24904;52.208;21.192;2023-07-02T04:16:16;29.90;;;21.50;;
39176;SDS011;24904;52.208;21.192;2023-07-02T04:21:19;28.60;;;20.70;;
39176;SDS011;24904;52.208;21.192;2023-07-02T04:34:31;26.60;;;19.90;;
39176;SDS011;24904;52.208;21.192;2023-07-02T04:39:38;25.00;;;18.90;;
39176;SDS011;24904;52.208;21.192;2023-07-02T04:44:43;28.00;;;20.80;;
39176;SDS011;24904;52.208;21.192;2023-07-02T04:49:48;26.70;;;17.60;;
39176;SDS011;24904;52.208;21.192;2023-07-02T04:54:54;24.10;;;17.30;;
39176;SDS011;24904;52.208;21.192;2023-07-02T04:59:59;24.90;;;16.70;;
39176;SDS011;24904;52.208;21.192;2023-07-02T05:05:05;24.00;;;16.80;;
39176;SDS011;24904;52.208;21.192;2023-07-02T05:10:10;21.50;;;16.60;;
39176;SDS011;24904;52.208;21.192;2023-07-02T05:15:16;19.30;;;14.80;;
39176;SDS011;24904;52.208;21.192;2023-07-02T05:20:21;25.30;;;16.10;;
39176;SDS011;24904;52.208;21.192;2023-07-02T05:25:26;22.00;;;15.40;;
39176;SDS011;24904;52.208;21.192;2023-07-02T05:30:31;18.70;;;14.90;;
39176;SDS011;24904;52.208;21.192;2023-07-02T05:35:36;19.10;;;14.20;;
39176;SDS011;24904;52.208;21.192;2023-07-02T05:40:41;20.80;;;13.20;;
39176;SDS011;24904;52.208;21.192;2023-07-02T05:45:46;21.90;;;13.30;;
39176;SDS011;24904;52.208;21.192;2023-07-02T05:50:53;26.70;;;12.60;;
39176;SDS011;24904;52.208;21.192;2023-07-02T05:55:58;21.80;;;12.40;;
39176;SDS011;24904;52.208;21.192;2023-07-02T06:01:03;20.10;;;12.00;;
39176;SDS011;24904;52.208;21.192;2023-07-02T06:06:08;13.50;;;10.70;;
39176;SDS011;24904;52.208;21.192;2023-07-02T06:11:13;14.90;;;10.70;;
39176;SDS011;24904;52.208;21.192;2023-07-02T06:16:18;15.00;;;9.50;;
39176;SDS011;24904;52.208;21.192;2023-07-02T06:21:23;18.30;;;10.70;;
39176;SDS011;24904;52.208;21.192;2023-07-02T06:26:31;14.20;;;9.80;;
39176;SDS011;24904;52.208;21.192;2023-07-02T06:31:36;13.60;;;10.50;;
39176;SDS011;24904;52.208;21.192;2023-07-02T06:36:42;12.30;;;8.20;;
39176;SDS011;24904;52.208;21.192;2023-07-02T06:41:47;12.70;;;9.10;;
39176;SDS011;24904;52.208;21.192;2023-07-02T06:46:52;12.50;;;8.50;;
39176;SDS011;24904;52.208;21.192;2023-07-02T06:51:57;16.30;;;9.40;;
39176;SDS011;24904;52.208;21.192;2023-07-02T06:57:03;16.70;;;8.80;;
39176;SDS011;24904;52.208;21.192;2023-07-02T07:02:08;14.80;;;8.60;;
39176;SDS011;24904;52.208;21.192;2023-07-02T07:07:13;13.50;;;7.80;;
39176;SDS011;24904;52.208;21.192;2023-07-02T07:12:19;12.10;;;7.10;;
39176;SDS011;24904;52.208;21.192;2023-07-02T07:17:24;10.90;;;7.10;;
39176;SDS011;24904;52.208;21.192;2023-07-02T07:22:28;11.70;;;6.50;;
39176;SDS011;24904;52.208;21.192;2023-07-02T07:27:34;11.90;;;6.10;;
39176;SDS011;24904;52.208;21.192;2023-07-02T07:32:39;9.60;;;5.60;;
39176;SDS011;24904;52.208;21.192;2023-07-02T07:37:44;15.80;;;6.30;;
39176;SDS011;24904;52.208;21.192;2023-07-02T07:42:49;8.20;;;5.70;;
39176;SDS011;24904;52.208;21.192;2023-07-02T07:47:54;11.50;;;5.50;;
39176;SDS011;24904;52.208;21.192;2023-07-02T07:52:59;10.30;;;5.60;;
39176;SDS011;24904;52.208;21.192;2023-07-02T07:58:04;9.50;;;5.30;;
39176;SDS011;24904;52.208;21.192;2023-07-02T08:03:11;8.20;;;4.80;;
39176;SDS011;24904;52.208;21.192;2023-07-02T08:08:16;5.20;;;4.30;;
39176;SDS011;24904;52.208;21.192;2023-07-02T08:13:21;10.20;;;4.10;;
39176;SDS011;24904;52.208;21.192;2023-07-02T08:18:26;7.40;;;3.80;;
39176;SDS011;24904;52.208;21.192;2023-07-02T08:23:31;6.80;;;3.90;;
39176;SDS011;24904;52.208;21.192;2023-07-02T08:28:36;5.90;;;3.50;;
39176;SDS011;24904;52.208;21.192;2023-07-02T08:33:41;8.70;;;3.50;;
39176;SDS011;24904;52.208;21.192;2023-07-02T08:38:46;5.80;;;3.40;;
39176;SDS011;24904;52.208;21.192;2023-07-02T08:43:55;6.00;;;3.50;;
39176;SDS011;24904;52.208;21.192;2023-07-02T08:49:01;7.50;;;3.20;;
39176;SDS011;24904;52.208;21.192;2023-07-02T08:54:06;7.30;;;3.50;;
39176;SDS011;24904;52.208;21.192;2023-07-02T08:59:12;6.70;;;3.50;;
39176;SDS011;24904;52.208;21.192;2023-07-02T09:04:17;3.80;;;2.90;;
39176;SDS011;24904;52.208;21.192;2023-07-02T09:09:25;7.80;;;3.60;;
39176;SDS011;24904;52.208;21.192;2023-07-02T09:14:30;11.90;;;3.40;;
39176;SDS011;24904;52.208;21.192;2023-07-02T09:19:36;4.80;;;3.10;;
39176;SDS011;24904;52.208;21.192;2023-07-02T09:24:52;10.20;;;3.10;;
39176;SDS011;24904;52.208;21.192;2023-07-02T09:30:04;7.70;;;3.30;;
39176;SDS011;24904;52.208;21.192;2023-07-02T09:35:11;7.40;;;3.30;;
39176;SDS011;24904;52.208;21.192;2023-07-02T09:40:16;4.40;;;3.00;;
39176;SDS011;24904;52.208;21.192;2023-07-02T09:45:22;5.30;;;3.00;;
39176;SDS011;24904;52.208;21.192;2023-07-02T09:50:28;8.50;;;4.10;;
39176;SDS011;24904;52.208;21.192;2023-07-02T09:55:34;5.60;;;3.50;;
39176;SDS011;24904;52.208;21.192;2023-07-02T10:00:39;5.50;;;3.50;;
39176;SDS011;24904;52.208;21.192;2023-07-02T10:05:45;4.60;;;3.10;;
39176;SDS011;24904;52.208;21.192;2023-07-02T10:10:50;6.50;;;3.40;;
39176;SDS011;24904;52.208;21.192;2023-07-02T10:16:01;4.30;;;2.70;;
39176;SDS011;24904;52.208;21.192;2023-07-02T10:21:17;3.40;;;2.40;;
39176;SDS011;24904;52.208;21.192;2023-07-02T10:26:22;6.90;;;2.60;;
39176;SDS011;24904;52.208;21.192;2023-07-02T10:31:28;3.60;;;2.30;;
39176;SDS011;24904;52.208;21.192;2023-07-02T10:36:33;7.50;;;2.20;;
39176;SDS011;24904;52.208;21.192;2023-07-02T10:41:38;3.60;;;2.20;;
39176;SDS011;24904;52.208;21.192;2023-07-02T10:46:46;8.60;;;2.50;;
39176;SDS011;24904;52.208;21.192;2023-07-02T10:52:02;2.90;;;2.20;;
39176;SDS011;24904;52.208;21.192;2023-07-02T10:57:09;3.90;;;2.50;;
39176;SDS011;24904;52.208;21.192;2023-07-02T11:02:17;4.60;;;2.40;;
39176;SDS011;24904;52.208;21.192;2023-07-02T11:07:23;3.60;;;2.10;;
39176;SDS011;24904;52.208;21.192;2023-07-02T11:12:29;8.20;;;2.60;;
39176;SDS011;24904;52.208;21.192;2023-07-02T11:17:34;4.90;;;2.50;;
39176;SDS011;24904;52.208;21.192;2023-07-02T11:22:39;4.70;;;2.50;;
39176;SDS011;24904;52.208;21.192;2023-07-02T11:27:45;2.80;;;2.30;;
39176;SDS011;24904;52.208;21.192;2023-07-02T11:32:51;5.10;;;2.70;;
39176;SDS011;24904;52.208;21.192;2023-07-02T11:37:57;9.60;;;2.60;;
39176;SDS011;24904;52.208;21.192;2023-07-02T11:43:02;4.70;;;2.30;;
39176;SDS011;24904;52.208;21.192;2023-07-02T11:48:07;6.00;;;2.80;;
39176;SDS011;24904;52.208;21.192;2023-07-02T11:53:12;8.10;;;2.90;;
39176;SDS011;24904;52.208;21.192;2023-07-02T11:58:18;3.30;;;2.50;;
39176;SDS011;24904;52.208;21.192;2023-07-02T12:03:22;3.60;;;2.50;;
39176;SDS011;24904;52.208;21.192;2023-07-02T12:08:28;3.40;;;2.50;;
39176;SDS011;24904;52.208;21.192;2023-07-02T12:13:33;3.90;;;2.30;;
39176;SDS011;24904;52.208;21.192;2023-07-02T12:18:38;7.10;;;2.60;;
39176;SDS011;24904;52.208;21.192;2023-07-02T12:23:43;5.10;;;2.40;;
39176;SDS011;24904;52.208;21.192;2023-07-02T12:28:48;4.10;;;2.20;;
39176;SDS011;24904;52.208;21.192;2023-07-02T12:33:53;3.30;;;2.30;;
39176;SDS011;24904;52.208;21.192;2023-07-02T12:38:58;5.50;;;2.50;;
39176;SDS011;24904;52.208;21.192;2023-07-02T12:44:04;9.00;;;2.10;;
39176;SDS011;24904;52.208;21.192;2023-07-02T12:49:09;3.90;;;1.90;;
39176;SDS011;24904;52.208;21.192;2023-07-02T12:54:15;5.20;;;2.60;;
39176;SDS011;24904;52.208;21.192;2023-07-02T12:59:19;2.80;;;1.80;;
39176;SDS011;24904;52.208;21.192;2023-07-02T13:04:25;3.00;;;1.90;;
39176;SDS011;24904;52.208;21.192;2023-07-02T13:09:29;3.60;;;1.50;;
39176;SDS011;24904;52.208;21.192;2023-07-02T13:14:35;4.80;;;1.90;;
39176;SDS011;24904;52.208;21.192;2023-07-02T13:19:39;8.10;;;1.80;;
39176;SDS011;24904;52.208;21.192;2023-07-02T13:24:45;7.50;;;1.80;;
39176;SDS011;24904;52.208;21.192;2023-07-02T13:29:50;9.90;;;2.20;;
39176;SDS011;24904;52.208;21.192;2023-07-02T13:34:55;5.60;;;1.40;;
39176;SDS011;24904;52.208;21.192;2023-07-02T13:40:00;4.70;;;1.80;;
39176;SDS011;24904;52.208;21.192;2023-07-02T13:45:09;4.70;;;1.60;;
39176;SDS011;24904;52.208;21.192;2023-07-02T13:50:15;9.10;;;1.60;;
39176;SDS011;24904;52.208;21.192;2023-07-02T13:55:20;5.10;;;1.70;;
39176;SDS011;24904;52.208;21.192;2023-07-02T14:00:29;6.10;;;1.50;;
39176;SDS011;24904;52.208;21.192;2023-07-02T14:05:34;4.60;;;2.00;;
39176;SDS011;24904;52.208;21.192;2023-07-02T14:10:39;4.30;;;1.50;;
39176;SDS011;24904;52.208;21.192;2023-07-02T14:15:44;9.90;;;2.00;;
39176;SDS011;24904;52.208;21.192;2023-07-02T14:20:49;6.30;;;1.70;;
39176;SDS011;24904;52.208;21.192;2023-07-02T14:25:54;3.00;;;1.60;;
39176;SDS011;24904;52.208;21.192;2023-07-02T14:30:59;2.00;;;1.40;;
39176;SDS011;24904;52.208;21.192;2023-07-02T14:36:06;3.50;;;1.60;;
39176;SDS011;24904;52.208;21.192;2023-07-02T14:41:11;5.90;;;1.60;;
39176;SDS011;24904;52.208;21.192;2023-07-02T14:46:16;9.60;;;1.70;;
39176;SDS011;24904;52.208;21.192;2023-07-02T14:51:21;7.50;;;1.70;;
39176;SDS011;24904;52.208;21.192;2023-07-02T14:56:26;4.60;;;1.60;;
39176;SDS011;24904;52.208;21.192;2023-07-02T15:01:31;2.60;;;1.70;;
39176;SDS011;24904;52.208;21.192;2023-07-02T15:06:36;4.50;;;1.70;;
39176;SDS011;24904;52.208;21.192;2023-07-02T15:11:41;3.80;;;1.50;;
39176;SDS011;24904;52.208;21.192;2023-07-02T15:20:49;7.20;;;2.00;;
39176;SDS011;24904;52.208;21.192;2023-07-02T15:25:55;5.20;;;1.60;;
39176;SDS011;24904;52.208;21.192;2023-07-02T15:31:02;3.20;;;1.80;;
39176;SDS011;24904;52.208;21.192;2023-07-02T15:36:09;4.20;;;1.50;;
39176;SDS011;24904;52.208;21.192;2023-07-02T15:41:16;6.70;;;1.80;;
39176;SDS011;24904;52.208;21.192;2023-07-02T15:46:22;6.00;;;2.10;;
39176;SDS011;24904;52.208;21.192;2023-07-02T15:51:27;3.20;;;1.90;;
39176;SDS011;24904;52.208;21.192;2023-07-02T15:56:37;4.40;;;1.60;;
39176;SDS011;24904;52.208;21.192;2023-07-02T16:01:42;5.10;;;1.80;;
39176;SDS011;24904;52.208;21.192;2023-07-02T16:06:48;4.10;;;1.60;;
39176;SDS011;24904;52.208;21.192;2023-07-02T16:11:53;4.30;;;1.60;;
39176;SDS011;24904;52.208;21.192;2023-07-02T16:16:58;7.00;;;1.90;;
39176;SDS011;24904;52.208;21.192;2023-07-02T16:22:04;5.90;;;1.90;;
39176;SDS011;24904;52.208;21.192;2023-07-02T16:27:09;2.50;;;1.80;;
39176;SDS011;24904;52.208;21.192;2023-07-02T16:32:15;4.40;;;1.60;;
39176;SDS011;24904;52.208;21.192;2023-07-02T16:37:25;3.80;;;1.70;;
39176;SDS011;24904;52.208;21.192;2023-07-02T16:42:30;5.80;;;2.00;;
39176;SDS011;24904;52.208;21.192;2023-07-02T16:47:35;3.50;;;1.80;;
39176;SDS011;24904;52.208;21.192;2023-07-02T16:52:40;3.50;;;1.50;;
39176;SDS011;24904;52.208;21.192;2023-07-02T16:57:45;3.20;;;2.00;;
39176;SDS011;24904;52.208;21.192;2023-07-02T17:02:50;3.00;;;1.90;;
39176;SDS011;24904;52.208;21.192;2023-07-02T17:07:55;6.20;;;1.90;;
39176;SDS011;24904;52.208;21.192;2023-07-02T17:13:00;3.50;;;1.80;;
39176;SDS011;24904;52.208;21.192;2023-07-02T17:18:05;5.40;;;2.00;;
39176;SDS011;24904;52.208;21.192;2023-07-02T17:23:10;4.20;;;1.90;;
39176;SDS011;24904;52.208;21.192;2023-07-02T17:28:15;4.20;;;1.80;;
39176;SDS011;24904;52.208;21.192;2023-07-02T17:33:20;3.80;;;1.80;;
39176;SDS011;24904;52.208;21.192;2023-07-02T17:38:25;5.70;;;2.40;;
39176;SDS011;24904;52.208;21.192;2023-07-02T17:43:30;5.90;;;2.10;;
39176;SDS011;24904;52.208;21.192;2023-07-02T17:48:35;7.10;;;1.90;;
39176;SDS011;24904;52.208;21.192;2023-07-02T17:53:40;3.60;;;2.10;;
39176;SDS011;24904;52.208;21.192;2023-07-02T17:58:45;3.20;;;1.90;;
39176;SDS011;24904;52.208;21.192;2023-07-02T18:03:50;6.30;;;1.60;;
39176;SDS011;24904;52.208;21.192;2023-07-02T18:08:55;5.60;;;1.60;;
39176;SDS011;24904;52.208;21.192;2023-07-02T18:14:01;6.50;;;2.20;;
39176;SDS011;24904;52.208;21.192;2023-07-02T18:19:06;4.40;;;1.90;;
39176;SDS011;24904;52.208;21.192;2023-07-02T18:24:11;3.10;;;1.90;;
39176;SDS011;24904;52.208;21.192;2023-07-02T18:29:16;3.90;;;2.20;;
39176;SDS011;24904;52.208;21.192;2023-07-02T18:34:21;3.00;;;2.00;;
39176;SDS011;24904;52.208;21.192;2023-07-02T18:39:27;7.30;;;2.30;;
39176;SDS011;24904;52.208;21.192;2023-07-02T18:44:37;5.10;;;2.10;;
39176;SDS011;24904;52.208;21.192;2023-07-02T18:49:42;7.10;;;2.40;;
39176;SDS011;24904;52.208;21.192;2023-07-02T18:54:47;7.70;;;2.30;;
39176;SDS011;24904;52.208;21.192;2023-07-02T18:59:52;8.00;;;2.60;;
39176;SDS011;24904;52.208;21.192;2023-07-02T19:04:58;5.40;;;2.10;;
39176;SDS011;24904;52.208;21.192;2023-07-02T19:10:03;5.40;;;2.20;;
39176;SDS011;24904;52.208;21.192;2023-07-02T19:15:10;10.10;;;2.40;;
39176;SDS011;24904;52.208;21.192;2023-07-02T19:20:15;6.40;;;2.10;;
39176;SDS011;24904;52.208;21.192;2023-07-02T19:25:21;8.30;;;2.40;;
39176;SDS011;24904;52.208;21.192;2023-07-02T19:30:26;5.70;;;2.60;;
39176;SDS011;24904;52.208;21.192;2023-07-02T19:35:31;9.10;;;2.80;;
39176;SDS011;24904;52.208;21.192;2023-07-02T19:40:36;14.30;;;3.00;;
39176;SDS011;24904;52.208;21.192;2023-07-02T19:45:41;11.90;;;2.60;;
39176;SDS011;24904;52.208;21.192;2023-07-02T19:50:46;5.70;;;2.60;;
39176;SDS011;24904;52.208;21.192;2023-07-02T19:56:00;5.90;;;2.80;;
39176;SDS011;24904;52.208;21.192;2023-07-02T20:01:09;9.70;;;2.90;;
39176;SDS011;24904;52.208;21.192;2023-07-02T20:06:15;8.30;;;3.30;;
39176;SDS011;24904;52.208;21.192;2023-07-02T20:11:20;10.30;;;3.10;;
39176;SDS011;24904;52.208;21.192;2023-07-02T20:16:26;8.40;;;3.50;;
39176;SDS011;24904;52.208;21.192;2023-07-02T20:21:31;7.20;;;3.30;;
39176;SDS011;24904;52.208;21.192;2023-07-02T20:26:36;6.80;;;3.20;;
39176;SDS011;24904;52.208;21.192;2023-07-02T20:31:41;5.50;;;3.50;;
39176;SDS011;24904;52.208;21.192;2023-07-02T20:36:46;7.90;;;3.50;;
39176;SDS011;24904;52.208;21.192;2023-07-02T20:41:55;7.80;;;3.30;;
39176;SDS011;24904;52.208;21.192;2023-07-02T20:47:00;8.50;;;3.30;;
39176;SDS011;24904;52.208;21.192;2023-07-02T20:52:07;10.10;;;3.60;;
39176;SDS011;24904;52.208;21.192;2023-07-02T20:57:13;7.10;;;3.40;;
39176;SDS011;24904;52.208;21.192;2023-07-02T21:02:18;5.20;;;3.40;;
39176;SDS011;24904;52.208;21.192;2023-07-02T21:07:25;11.20;;;3.50;;
39176;SDS011;24904;52.208;21.192;2023-07-02T21:20:46;6.00;;;3.40;;
39176;SDS011;24904;52.208;21.192;2023-07-02T21:25:58;6.60;;;3.50;;
39176;SDS011;24904;52.208;21.192;2023-07-02T21:31:04;7.30;;;3.60;;
39176;SDS011;24904;52.208;21.192;2023-07-02T21:36:09;7.20;;;3.40;;
39176;SDS011;24904;52.208;21.192;2023-07-02T21:41:16;12.00;;;4.30;;
39176;SDS011;24904;52.208;21.192;2023-07-02T21:46:22;10.70;;;3.60;;
39176;SDS011;24904;52.208;21.192;2023-07-02T21:51:27;8.40;;;3.90;;
39176;SDS011;24904;52.208;21.192;2023-07-02T21:56:32;9.60;;;3.80;;
39176;SDS011;24904;52.208;21.192;2023-07-02T22:01:37;8.20;;;3.90;;
39176;SDS011;24904;52.208;21.192;2023-07-02T22:06:42;11.00;;;3.60;;
39176;SDS011;24904;52.208;21.192;2023-07-02T22:11:47;10.40;;;4.20;;
39176;SDS011;24904;52.208;21.192;2023-07-02T22:16:52;9.00;;;4.30;;
39176;SDS011;24904;52.208;21.192;2023-07-02T22:21:59;8.70;;;3.60;;
39176;SDS011;24904;52.208;21.192;2023-07-02T22:27:05;11.00;;;3.60;;
39176;SDS011;24904;52.208;21.192;2023-07-02T22:32:10;6.00;;;3.60;;
39176;SDS011;24904;52.208;21.192;2023-07-02T22:37:16;10.30;;;4.00;;
39176;SDS011;24904;52.208;21.192;2023-07-02T22:42:21;7.70;;;3.80;;
39176;SDS011;24904;52.208;21.192;2023-07-02T22:47:26;5.60;;;4.10;;
39176;SDS011;24904;52.208;21.192;2023-07-02T22:52:31;6.60;;;4.00;;
39176;SDS011;24904;52.208;21.192;2023-07-02T22:57:39;6.80;;;4.20;;
39176;SDS011;24904;52.208;21.192;2023-07-02T23:02:45;9.90;;;4.50;;
39176;SDS011;24904;52.208;21.192;2023-07-02T23:07:50;7.50;;;4.50;;
39176;SDS011;24904;52.208;21.192;2023-07-02T23:12:55;8.00;;;4.30;;
39176;SDS011;24904;52.208;21.192;2023-07-02T23:18:00;9.50;;;4.50;;
39176;SDS011;24904;52.208;21.192;2023-07-02T23:23:06;10.20;;;4.30;;
39176;SDS011;24904;52.208;21.192;2023-07-02T23:28:11;9.90;;;4.60;;
39176;SDS011;24904;52.208;21.192;2023-07-02T23:33:16;7.90;;;4.30;;
39176;SDS011;24904;52.208;21.192;2023-07-02T23:38:23;8.40;;;4.50;;
39176;SDS011;24904;52.208;21.192;2023-07-02T23:43:28;7.20;;;4.80;;
39176;SDS011;24904;52.208;21.192;2023-07-02T23:48:33;11.20;;;5.10;;
39176;SDS011;24904;52.208;21.192;2023-07-02T23:53:38;7.00;;;4.80;;
39176;SDS011;24904;52.208;21.192;2023-07-02T23:58:43;7.40;;;4.70;;
